sensor_id;sensor_type;location;lat;lon;timestamp;pressure;altitude;pressure_sealevel;temperature;humidity
61055;BME280;46939;48.940;8.258;2022-07-04T00:01:48;100547.81;;;27.31;36.18
61055;BME280;46939;48.940;8.258;2022-07-04T00:04:17;100553.41;;;27.20;36.67
61055;BME280;46939;48.940;8.258;2022-07-04T00:06:45;100552.91;;;27.18;36.40
61055;BME280;46939;48.940;8.258;2022-07-04T00:09:16;100554.06;;;27.12;36.52
61055;BME280;46939;48.940;8.258;2022-07-04T00:11:45;100550.75;;;27.15;36.97
61055;BME280;46939;48.940;8.258;2022-07-04T00:14:13;100538.47;;;26.99;36.57
61055;BME280;46939;48.940;8.258;2022-07-04T00:16:42;100545.50;;;27.00;36.64
61055;BME280;46939;48.940;8.258;2022-07-04T00:19:11;100541.22;;;26.94;36.88
61055;BME280;46939;48.940;8.258;2022-07-04T00:21:39;100546.09;;;26.97;36.44
61055;BME280;46939;48.940;8.258;2022-07-04T00:24:08;100541.31;;;26.89;37.06
61055;BME280;46939;48.940;8.258;2022-07-04T00:26:39;100551.66;;;26.87;37.15
61055;BME280;46939;48.940;8.258;2022-07-04T00:29:07;100554.53;;;26.76;37.20
61055;BME280;46939;48.940;8.258;2022-07-04T00:31:36;100545.34;;;26.72;37.06
61055;BME280;46939;48.940;8.258;2022-07-04T00:34:05;100542.88;;;26.71;36.88
61055;BME280;46939;48.940;8.258;2022-07-04T00:36:33;100550.81;;;26.67;37.12
61055;BME280;46939;48.940;8.258;2022-07-04T00:39:03;100555.50;;;26.62;37.10
61055;BME280;46939;48.940;8.258;2022-07-04T00:41:31;100552.91;;;26.51;37.30
61055;BME280;46939;48.940;8.258;2022-07-04T00:44:05;100566.38;;;26.38;37.61
61055;BME280;46939;48.940;8.258;2022-07-04T00:46:34;100573.09;;;26.40;37.40
61055;BME280;46939;48.940;8.258;2022-07-04T00:49:05;100576.66;;;26.41;37.97
61055;BME280;46939;48.940;8.258;2022-07-04T00:51:34;100571.50;;;26.39;37.69
61055;BME280;46939;48.940;8.258;2022-07-04T00:54:05;100575.00;;;26.40;37.96
61055;BME280;46939;48.940;8.258;2022-07-04T00:56:35;100578.91;;;26.34;37.50
61055;BME280;46939;48.940;8.258;2022-07-04T00:59:07;100584.91;;;26.30;37.97
61055;BME280;46939;48.940;8.258;2022-07-04T01:01:37;100585.28;;;26.19;38.04
61055;BME280;46939;48.940;8.258;2022-07-04T01:04:06;100586.97;;;26.15;38.18
61055;BME280;46939;48.940;8.258;2022-07-04T01:06:34;100580.50;;;26.11;38.32
61055;BME280;46939;48.940;8.258;2022-07-04T01:09:04;100581.34;;;26.06;38.74
61055;BME280;46939;48.940;8.258;2022-07-04T01:11:33;100570.75;;;26.04;38.52
61055;BME280;46939;48.940;8.258;2022-07-04T01:14:02;100574.03;;;26.01;39.14
61055;BME280;46939;48.940;8.258;2022-07-04T01:16:34;100571.13;;;25.93;39.05
61055;BME280;46939;48.940;8.258;2022-07-04T01:19:03;100571.19;;;25.88;39.44
61055;BME280;46939;48.940;8.258;2022-07-04T01:21:37;100582.63;;;25.85;39.62
61055;BME280;46939;48.940;8.258;2022-07-04T01:24:10;100581.28;;;25.82;39.41
61055;BME280;46939;48.940;8.258;2022-07-04T01:26:39;100581.84;;;25.79;39.25
61055;BME280;46939;48.940;8.258;2022-07-04T01:29:07;100586.44;;;25.78;39.35
61055;BME280;46939;48.940;8.258;2022-07-04T01:31:36;100586.22;;;25.70;39.09
61055;BME280;46939;48.940;8.258;2022-07-04T01:34:04;100589.78;;;25.65;38.96
61055;BME280;46939;48.940;8.258;2022-07-04T01:36:35;100594.44;;;25.60;39.72
61055;BME280;46939;48.940;8.258;2022-07-04T01:39:04;100589.59;;;25.56;40.28
61055;BME280;46939;48.940;8.258;2022-07-04T01:41:33;100589.59;;;25.51;40.16
61055;BME280;46939;48.940;8.258;2022-07-04T01:44:02;100597.50;;;25.48;39.82
61055;BME280;46939;48.940;8.258;2022-07-04T01:46:31;100600.78;;;25.45;39.90
61055;BME280;46939;48.940;8.258;2022-07-04T01:48:59;100607.28;;;25.49;39.97
61055;BME280;46939;48.940;8.258;2022-07-04T01:51:28;100606.78;;;25.42;40.12
61055;BME280;46939;48.940;8.258;2022-07-04T01:53:59;100604.06;;;25.37;40.71
61055;BME280;46939;48.940;8.258;2022-07-04T01:56:27;100594.88;;;25.38;40.51
61055;BME280;46939;48.940;8.258;2022-07-04T01:58:56;100604.13;;;25.31;41.24
61055;BME280;46939;48.940;8.258;2022-07-04T02:01:27;100608.47;;;25.27;41.14
61055;BME280;46939;48.940;8.258;2022-07-04T02:03:56;100603.41;;;25.16;41.24
61055;BME280;46939;48.940;8.258;2022-07-04T02:06:25;100611.28;;;25.07;42.11
61055;BME280;46939;48.940;8.258;2022-07-04T02:08:54;100622.38;;;25.05;42.08
61055;BME280;46939;48.940;8.258;2022-07-04T02:11:38;100618.31;;;25.08;41.58
61055;BME280;46939;48.940;8.258;2022-07-04T02:14:21;100609.13;;;25.04;41.31
61055;BME280;46939;48.940;8.258;2022-07-04T02:16:51;100614.00;;;25.02;42.20
61055;BME280;46939;48.940;8.258;2022-07-04T02:19:19;100615.63;;;24.98;42.62
61055;BME280;46939;48.940;8.258;2022-07-04T02:21:48;100617.53;;;24.97;42.30
61055;BME280;46939;48.940;8.258;2022-07-04T02:24:17;100611.09;;;24.88;42.21
61055;BME280;46939;48.940;8.258;2022-07-04T02:26:49;100614.09;;;24.81;42.31
61055;BME280;46939;48.940;8.258;2022-07-04T02:29:17;100624.91;;;24.81;42.83
61055;BME280;46939;48.940;8.258;2022-07-04T02:31:46;100621.16;;;24.72;43.66
61055;BME280;46939;48.940;8.258;2022-07-04T02:34:15;100622.53;;;24.70;43.76
61055;BME280;46939;48.940;8.258;2022-07-04T02:36:43;100620.66;;;24.60;43.57
61055;BME280;46939;48.940;8.258;2022-07-04T02:39:12;100624.44;;;24.59;44.23
61055;BME280;46939;48.940;8.258;2022-07-04T02:41:40;100626.63;;;24.57;44.34
61055;BME280;46939;48.940;8.258;2022-07-04T02:44:12;100615.78;;;24.52;44.54
61055;BME280;46939;48.940;8.258;2022-07-04T02:46:40;100626.63;;;24.52;44.76
61055;BME280;46939;48.940;8.258;2022-07-04T02:49:09;100626.09;;;24.50;44.39
61055;BME280;46939;48.940;8.258;2022-07-04T02:51:37;100634.22;;;24.50;44.55
61055;BME280;46939;48.940;8.258;2022-07-04T02:54:07;100632.06;;;24.47;44.73
61055;BME280;46939;48.940;8.258;2022-07-04T02:56:36;100630.69;;;24.44;45.14
61055;BME280;46939;48.940;8.258;2022-07-04T02:59:05;100633.16;;;24.46;44.87
61055;BME280;46939;48.940;8.258;2022-07-04T03:01:36;100636.69;;;24.41;45.15
61055;BME280;46939;48.940;8.258;2022-07-04T03:04:04;100629.34;;;24.47;45.23
61055;BME280;46939;48.940;8.258;2022-07-04T03:06:33;100642.06;;;24.46;45.10
61055;BME280;46939;48.940;8.258;2022-07-04T03:09:01;100636.94;;;24.45;45.31
61055;BME280;46939;48.940;8.258;2022-07-04T03:11:30;100637.75;;;24.45;45.11
61055;BME280;46939;48.940;8.258;2022-07-04T03:13:59;100639.91;;;24.38;44.93
61055;BME280;46939;48.940;8.258;2022-07-04T03:16:27;100633.41;;;24.24;46.08
61055;BME280;46939;48.940;8.258;2022-07-04T03:18:58;100637.47;;;24.21;46.00
61055;BME280;46939;48.940;8.258;2022-07-04T03:21:27;100644.50;;;24.17;45.92
61055;BME280;46939;48.940;8.258;2022-07-04T03:23:55;100649.91;;;24.02;46.34
61055;BME280;46939;48.940;8.258;2022-07-04T03:26:29;100649.09;;;24.01;46.72
61055;BME280;46939;48.940;8.258;2022-07-04T03:28:58;100648.56;;;23.94;47.27
61055;BME280;46939;48.940;8.258;2022-07-04T03:31:28;100637.22;;;23.87;47.43
61055;BME280;46939;48.940;8.258;2022-07-04T03:34:00;100638.00;;;23.82;47.38
61055;BME280;46939;48.940;8.258;2022-07-04T03:36:28;100644.78;;;23.80;47.43
61055;BME280;46939;48.940;8.258;2022-07-04T03:38:57;100643.97;;;23.79;47.61
61055;BME280;46939;48.940;8.258;2022-07-04T03:41:25;100651.00;;;23.80;47.70
61055;BME280;46939;48.940;8.258;2022-07-04T03:43:54;100653.44;;;23.72;47.93
61055;BME280;46939;48.940;8.258;2022-07-04T03:46:22;100648.56;;;23.69;47.63
61055;BME280;46939;48.940;8.258;2022-07-04T03:48:51;100661.00;;;23.70;47.61
61055;BME280;46939;48.940;8.258;2022-07-04T03:51:23;100654.19;;;23.62;47.79
61055;BME280;46939;48.940;8.258;2022-07-04T03:53:52;100647.13;;;23.56;47.86
61055;BME280;46939;48.940;8.258;2022-07-04T03:56:21;100654.47;;;23.60;47.90
61055;BME280;46939;48.940;8.258;2022-07-04T03:58:49;100653.63;;;23.60;48.09
61055;BME280;46939;48.940;8.258;2022-07-04T04:01:18;100651.44;;;23.52;48.20
61055;BME280;46939;48.940;8.258;2022-07-04T04:03:47;100654.97;;;23.47;48.48
61055;BME280;46939;48.940;8.258;2022-07-04T04:06:30;100660.34;;;23.42;48.34
61055;BME280;46939;48.940;8.258;2022-07-04T04:08:59;100660.88;;;23.39;48.10
61055;BME280;46939;48.940;8.258;2022-07-04T04:11:28;100661.41;;;23.36;48.49
61055;BME280;46939;48.940;8.258;2022-07-04T04:13:56;100659.50;;;23.36;48.80
61055;BME280;46939;48.940;8.258;2022-07-04T04:16:25;100674.94;;;23.36;48.71
61055;BME280;46939;48.940;8.258;2022-07-04T04:18:53;100679.00;;;23.38;48.88
61055;BME280;46939;48.940;8.258;2022-07-04T04:21:23;100683.06;;;23.41;48.95
61055;BME280;46939;48.940;8.258;2022-07-04T04:23:54;100687.09;;;23.38;49.23
61055;BME280;46939;48.940;8.258;2022-07-04T04:26:22;100692.50;;;23.33;49.33
61055;BME280;46939;48.940;8.258;2022-07-04T04:28:51;100697.69;;;23.45;48.75
61055;BME280;46939;48.940;8.258;2022-07-04T04:31:19;100707.41;;;23.46;48.82
61055;BME280;46939;48.940;8.258;2022-07-04T04:33:48;100708.47;;;23.40;48.61
61055;BME280;46939;48.940;8.258;2022-07-04T04:36:17;100714.94;;;23.39;49.27
61055;BME280;46939;48.940;8.258;2022-07-04T04:38:45;100703.59;;;23.37;49.64
61055;BME280;46939;48.940;8.258;2022-07-04T04:41:16;100714.91;;;23.29;50.13
61055;BME280;46939;48.940;8.258;2022-07-04T04:43:45;100714.66;;;23.30;49.90
61055;BME280;46939;48.940;8.258;2022-07-04T04:46:14;100715.97;;;23.28;50.13
61055;BME280;46939;48.940;8.258;2022-07-04T04:48:45;100723.06;;;23.34;50.46
61055;BME280;46939;48.940;8.258;2022-07-04T04:51:13;100720.09;;;23.40;50.16
61055;BME280;46939;48.940;8.258;2022-07-04T04:53:42;100723.63;;;23.46;49.85
61055;BME280;46939;48.940;8.258;2022-07-04T04:56:11;100723.91;;;23.50;49.61
61055;BME280;46939;48.940;8.258;2022-07-04T04:58:42;100719.09;;;23.62;49.62
61055;BME280;46939;48.940;8.258;2022-07-04T05:01:10;100720.22;;;23.71;48.32
61055;BME280;46939;48.940;8.258;2022-07-04T05:03:39;100718.06;;;23.73;47.30
61055;BME280;46939;48.940;8.258;2022-07-04T05:06:08;100725.94;;;23.80;46.46
61055;BME280;46939;48.940;8.258;2022-07-04T05:08:37;100732.19;;;23.96;46.41
61055;BME280;46939;48.940;8.258;2022-07-04T05:11:06;100736.53;;;24.12;45.96
61055;BME280;46939;48.940;8.258;2022-07-04T05:13:34;100743.31;;;24.25;45.00
61055;BME280;46939;48.940;8.258;2022-07-04T05:16:06;100744.41;;;24.29;43.96
61055;BME280;46939;48.940;8.258;2022-07-04T05:18:34;100744.44;;;24.44;44.22
61055;BME280;46939;48.940;8.258;2022-07-04T05:21:03;100751.22;;;24.57;44.33
61055;BME280;46939;48.940;8.258;2022-07-04T05:23:32;100746.88;;;24.61;43.25
61055;BME280;46939;48.940;8.258;2022-07-04T05:26:00;100730.34;;;24.73;43.18
61055;BME280;46939;48.940;8.258;2022-07-04T05:28:29;100741.41;;;24.92;42.63
61055;BME280;46939;48.940;8.258;2022-07-04T05:30:57;100738.66;;;25.02;41.35
61055;BME280;46939;48.940;8.258;2022-07-04T05:33:29;100732.44;;;25.12;41.04
61055;BME280;46939;48.940;8.258;2022-07-04T05:35:57;100730.81;;;25.16;41.35
61055;BME280;46939;48.940;8.258;2022-07-04T05:38:26;100734.31;;;25.26;41.25
61055;BME280;46939;48.940;8.258;2022-07-04T05:40:55;100727.50;;;25.34;40.78
61055;BME280;46939;48.940;8.258;2022-07-04T05:43:23;100732.06;;;25.44;40.00
61055;BME280;46939;48.940;8.258;2022-07-04T05:45:52;100727.13;;;25.51;40.26
61055;BME280;46939;48.940;8.258;2022-07-04T05:48:20;100731.47;;;25.57;40.29
61055;BME280;46939;48.940;8.258;2022-07-04T05:50:52;100731.97;;;25.59;40.57
61055;BME280;46939;48.940;8.258;2022-07-04T05:53:20;100731.69;;;25.66;39.31
61055;BME280;46939;48.940;8.258;2022-07-04T05:55:49;100718.13;;;25.66;40.08
61055;BME280;46939;48.940;8.258;2022-07-04T05:58:18;100726.75;;;25.73;39.91
61055;BME280;46939;48.940;8.258;2022-07-04T06:00:48;100730.53;;;25.77;39.86
61055;BME280;46939;48.940;8.258;2022-07-04T06:03:19;100719.72;;;25.72;39.46
61055;BME280;46939;48.940;8.258;2022-07-04T06:05:48;100725.34;;;25.86;38.21
61055;BME280;46939;48.940;8.258;2022-07-04T06:08:21;100721.28;;;25.88;37.61
61055;BME280;46939;48.940;8.258;2022-07-04T06:10:49;100715.81;;;25.93;38.82
61055;BME280;46939;48.940;8.258;2022-07-04T06:13:18;100713.06;;;25.98;38.69
61055;BME280;46939;48.940;8.258;2022-07-04T06:15:47;100723.88;;;26.03;38.21
61055;BME280;46939;48.940;8.258;2022-07-04T06:18:16;100719.81;;;26.01;37.71
61055;BME280;46939;48.940;8.258;2022-07-04T06:20:44;100706.00;;;25.97;37.75
61055;BME280;46939;48.940;8.258;2022-07-04T06:23:13;100713.59;;;26.00;37.80
61055;BME280;46939;48.940;8.258;2022-07-04T06:25:44;100707.59;;;26.03;37.33
61055;BME280;46939;48.940;8.258;2022-07-04T06:28:13;100717.09;;;26.06;37.44
61055;BME280;46939;48.940;8.258;2022-07-04T06:30:43;100712.72;;;26.05;37.74
61055;BME280;46939;48.940;8.258;2022-07-04T06:33:11;100718.34;;;26.19;37.89
61055;BME280;46939;48.940;8.258;2022-07-04T06:35:40;100714.78;;;26.23;37.59
61055;BME280;46939;48.940;8.258;2022-07-04T06:38:16;100713.28;;;26.41;37.81
61055;BME280;46939;48.940;8.258;2022-07-04T06:40:49;100707.84;;;26.41;38.11
61055;BME280;46939;48.940;8.258;2022-07-04T06:43:18;100714.78;;;26.58;36.79
61055;BME280;46939;48.940;8.258;2022-07-04T06:45:47;100707.97;;;26.60;37.74
61055;BME280;46939;48.940;8.258;2022-07-04T06:48:16;100710.09;;;26.63;37.26
61055;BME280;46939;48.940;8.258;2022-07-04T06:50:45;100714.97;;;26.66;36.93
61055;BME280;46939;48.940;8.258;2022-07-04T06:53:13;100712.25;;;26.66;37.40
61055;BME280;46939;48.940;8.258;2022-07-04T06:55:42;100711.03;;;26.77;36.66
61055;BME280;46939;48.940;8.258;2022-07-04T06:58:13;100718.31;;;26.87;36.85
61055;BME280;46939;48.940;8.258;2022-07-04T07:00:42;100712.91;;;26.82;37.24
61055;BME280;46939;48.940;8.258;2022-07-04T07:03:11;100710.41;;;26.86;36.88
61055;BME280;46939;48.940;8.258;2022-07-04T07:05:39;100712.97;;;27.01;36.54
61055;BME280;46939;48.940;8.258;2022-07-04T07:08:08;100713.78;;;27.01;36.73
61055;BME280;46939;48.940;8.258;2022-07-04T07:10:36;100724.47;;;27.22;36.94
61055;BME280;46939;48.940;8.258;2022-07-04T07:13:05;100719.69;;;27.33;36.58
61055;BME280;46939;48.940;8.258;2022-07-04T07:15:36;100713.31;;;27.42;36.22
61055;BME280;46939;48.940;8.258;2022-07-04T07:18:05;100706.78;;;27.62;36.35
61055;BME280;46939;48.940;8.258;2022-07-04T07:20:34;100715.75;;;27.87;35.38
61055;BME280;46939;48.940;8.258;2022-07-04T07:23:02;100708.94;;;28.03;34.86
61055;BME280;46939;48.940;8.258;2022-07-04T07:25:31;100715.19;;;28.22;34.47
61055;BME280;46939;48.940;8.258;2022-07-04T07:28:00;100710.38;;;28.33;34.27
61055;BME280;46939;48.940;8.258;2022-07-04T07:30:28;100705.41;;;28.54;34.56
61055;BME280;46939;48.940;8.258;2022-07-04T07:32:59;100704.63;;;28.81;34.81
61055;BME280;46939;48.940;8.258;2022-07-04T07:35:28;100712.41;;;28.88;33.48
61055;BME280;46939;48.940;8.258;2022-07-04T07:37:57;100714.56;;;29.18;32.70
61055;BME280;46939;48.940;8.258;2022-07-04T07:40:25;100706.53;;;29.50;33.46
61055;BME280;46939;48.940;8.258;2022-07-04T07:42:54;100715.25;;;29.88;31.79
61055;BME280;46939;48.940;8.258;2022-07-04T07:45:23;100704.22;;;30.15;30.50
61055;BME280;46939;48.940;8.258;2022-07-04T07:47:51;100714.84;;;30.39;30.77
61055;BME280;46939;48.940;8.258;2022-07-04T07:50:23;100711.81;;;30.72;30.81
61055;BME280;46939;48.940;8.258;2022-07-04T07:52:51;100714.97;;;30.97;30.03
61055;BME280;46939;48.940;8.258;2022-07-04T07:55:20;100717.81;;;31.23;29.75
61055;BME280;46939;48.940;8.258;2022-07-04T07:57:48;100718.88;;;31.53;29.55
61055;BME280;46939;48.940;8.258;2022-07-04T08:00:18;100709.22;;;31.73;28.25
61055;BME280;46939;48.940;8.258;2022-07-04T08:02:46;100712.75;;;31.82;29.18
61055;BME280;46939;48.940;8.258;2022-07-04T08:05:30;100709.72;;;31.92;28.36
61055;BME280;46939;48.940;8.258;2022-07-04T08:07:58;100711.13;;;32.24;28.05
61055;BME280;46939;48.940;8.258;2022-07-04T08:10:27;100704.63;;;32.55;27.78
61055;BME280;46939;48.940;8.258;2022-07-04T08:12:56;100699.09;;;32.72;28.00
61055;BME280;46939;48.940;8.258;2022-07-04T08:15:25;100702.44;;;32.87;27.70
61055;BME280;46939;48.940;8.258;2022-07-04T08:17:53;100701.63;;;33.16;27.31
61055;BME280;46939;48.940;8.258;2022-07-04T08:20:22;100695.72;;;33.35;26.70
61055;BME280;46939;48.940;8.258;2022-07-04T08:22:53;100688.84;;;33.49;26.12
61055;BME280;46939;48.940;8.258;2022-07-04T08:25:22;100693.41;;;33.66;26.72
61055;BME280;46939;48.940;8.258;2022-07-04T08:27:50;100683.75;;;33.81;26.08
61055;BME280;46939;48.940;8.258;2022-07-04T08:30:19;100677.97;;;33.95;25.67
61055;BME280;46939;48.940;8.258;2022-07-04T08:32:48;100686.59;;;34.06;25.82
61055;BME280;46939;48.940;8.258;2022-07-04T08:35:16;100677.97;;;34.28;25.66
61055;BME280;46939;48.940;8.258;2022-07-04T08:37:45;100676.63;;;34.46;25.80
61055;BME280;46939;48.940;8.258;2022-07-04T08:40:21;100673.34;;;34.53;24.72
61055;BME280;46939;48.940;8.258;2022-07-04T08:42:50;100670.88;;;34.39;24.54
61055;BME280;46939;48.940;8.258;2022-07-04T08:45:25;100674.97;;;34.21;24.59
61055;BME280;46939;48.940;8.258;2022-07-04T08:48:00;100666.06;;;34.36;24.91
61055;BME280;46939;48.940;8.258;2022-07-04T08:50:31;100659.63;;;34.32;25.78
61055;BME280;46939;48.940;8.258;2022-07-04T08:53:01;100662.22;;;34.49;25.49
61055;BME280;46939;48.940;8.258;2022-07-04T08:55:35;100662.69;;;34.76;24.41
61055;BME280;46939;48.940;8.258;2022-07-04T08:58:16;100657.53;;;34.87;24.49
61055;BME280;46939;48.940;8.258;2022-07-04T09:00:56;100658.00;;;34.77;24.09
61055;BME280;46939;48.940;8.258;2022-07-04T09:03:25;100650.41;;;34.73;24.03
61055;BME280;46939;48.940;8.258;2022-07-04T09:05:55;100652.38;;;34.85;24.26
61055;BME280;46939;48.940;8.258;2022-07-04T09:08:24;100661.31;;;34.94;24.19
61055;BME280;46939;48.940;8.258;2022-07-04T09:10:56;100650.91;;;35.00;23.07
61055;BME280;46939;48.940;8.258;2022-07-04T09:13:24;100656.50;;;35.16;23.33
61055;BME280;46939;48.940;8.258;2022-07-04T09:15:53;100655.63;;;35.40;23.21
61055;BME280;46939;48.940;8.258;2022-07-04T09:18:23;100660.09;;;35.57;23.13
61055;BME280;46939;48.940;8.258;2022-07-04T09:20:53;100655.66;;;35.28;22.39
61055;BME280;46939;48.940;8.258;2022-07-04T09:23:23;100657.56;;;35.39;22.56
61055;BME280;46939;48.940;8.258;2022-07-04T09:26:11;100651.22;;;35.91;22.61
61055;BME280;46939;48.940;8.258;2022-07-04T09:28:42;100659.81;;;36.18;22.60
61055;BME280;46939;48.940;8.258;2022-07-04T09:31:19;100665.84;;;36.52;22.41
61055;BME280;46939;48.940;8.258;2022-07-04T09:33:51;100653.50;;;36.81;21.41
61055;BME280;46939;48.940;8.258;2022-07-04T09:36:22;100653.97;;;36.99;21.53
61055;BME280;46939;48.940;8.258;2022-07-04T09:39:05;100660.72;;;36.85;20.46
61055;BME280;46939;48.940;8.258;2022-07-04T09:41:55;100666.53;;;36.80;20.97
61055;BME280;46939;48.940;8.258;2022-07-04T09:44:24;100673.84;;;36.73;20.27
61055;BME280;46939;48.940;8.258;2022-07-04T09:46:54;100666.97;;;36.98;21.00
61055;BME280;46939;48.940;8.258;2022-07-04T09:49:22;100672.81;;;37.12;20.73
61055;BME280;46939;48.940;8.258;2022-07-04T09:51:53;100665.75;;;37.50;21.02
61055;BME280;46939;48.940;8.258;2022-07-04T09:54:24;100664.88;;;37.66;20.62
61055;BME280;46939;48.940;8.258;2022-07-04T09:57:01;100670.63;;;37.96;21.23
61055;BME280;46939;48.940;8.258;2022-07-04T09:59:30;100673.53;;;38.03;20.34
61055;BME280;46939;48.940;8.258;2022-07-04T10:02:08;100674.34;;;38.26;20.29
61055;BME280;46939;48.940;8.258;2022-07-04T10:04:45;100673.53;;;38.03;19.78
61055;BME280;46939;48.940;8.258;2022-07-04T10:07:30;100670.59;;;38.61;20.09
61055;BME280;46939;48.940;8.258;2022-07-04T10:09:59;100677.41;;;38.90;19.12
61055;BME280;46939;48.940;8.258;2022-07-04T10:12:30;100671.91;;;38.94;18.73
61055;BME280;46939;48.940;8.258;2022-07-04T10:14:59;100684.38;;;38.80;19.16
61055;BME280;46939;48.940;8.258;2022-07-04T10:17:27;100682.97;;;38.90;19.17
61055;BME280;46939;48.940;8.258;2022-07-04T10:19:56;100670.63;;;39.14;18.68
61055;BME280;46939;48.940;8.258;2022-07-04T10:22:25;100669.34;;;39.08;19.19
61055;BME280;46939;48.940;8.258;2022-07-04T10:24:54;100670.28;;;38.66;19.29
61055;BME280;46939;48.940;8.258;2022-07-04T10:27:22;100674.59;;;39.13;19.29
61055;BME280;46939;48.940;8.258;2022-07-04T10:29:54;100670.47;;;39.60;18.79
61055;BME280;46939;48.940;8.258;2022-07-04T10:32:23;100665.94;;;39.78;18.32
61055;BME280;46939;48.940;8.258;2022-07-04T10:34:52;100659.78;;;39.62;18.79
61055;BME280;46939;48.940;8.258;2022-07-04T10:37:21;100663.72;;;39.61;18.88
61055;BME280;46939;48.940;8.258;2022-07-04T10:39:49;100665.94;;;39.78;18.12
61055;BME280;46939;48.940;8.258;2022-07-04T10:42:25;100667.50;;;39.76;17.83
61055;BME280;46939;48.940;8.258;2022-07-04T10:45:00;100662.31;;;39.41;17.72
61055;BME280;46939;48.940;8.258;2022-07-04T10:47:29;100659.63;;;39.48;18.74
61055;BME280;46939;48.940;8.258;2022-07-04T10:49:57;100657.16;;;39.43;18.82
61055;BME280;46939;48.940;8.258;2022-07-04T10:52:26;100660.22;;;39.98;17.86
61055;BME280;46939;48.940;8.258;2022-07-04T10:54:54;100656.72;;;40.08;17.56
61055;BME280;46939;48.940;8.258;2022-07-04T10:57:26;100649.56;;;40.44;17.53
61055;BME280;46939;48.940;8.258;2022-07-04T11:00:08;100645.97;;;40.47;17.41
61055;BME280;46939;48.940;8.258;2022-07-04T11:02:38;100641.84;;;40.71;17.48
61055;BME280;46939;48.940;8.258;2022-07-04T11:05:08;100639.34;;;40.56;17.11
61055;BME280;46939;48.940;8.258;2022-07-04T11:07:56;100639.09;;;40.82;17.48
61055;BME280;46939;48.940;8.258;2022-07-04T11:10:26;100638.28;;;40.78;17.41
61055;BME280;46939;48.940;8.258;2022-07-04T11:13:15;100636.91;;;41.06;17.34
61055;BME280;46939;48.940;8.258;2022-07-04T11:16:06;100636.09;;;40.98;16.84
61055;BME280;46939;48.940;8.258;2022-07-04T11:18:39;100639.81;;;40.68;16.96
61055;BME280;46939;48.940;8.258;2022-07-04T11:21:19;100637.84;;;40.69;17.89
61055;BME280;46939;48.940;8.258;2022-07-04T11:23:51;100625.69;;;40.91;17.17
61055;BME280;46939;48.940;8.258;2022-07-04T11:26:21;100620.59;;;41.01;17.36
61055;BME280;46939;48.940;8.258;2022-07-04T11:28:49;100616.63;;;40.98;17.10
61055;BME280;46939;48.940;8.258;2022-07-04T11:31:21;100614.94;;;40.83;16.77
61055;BME280;46939;48.940;8.258;2022-07-04T11:34:02;100619.59;;;40.68;17.17
61055;BME280;46939;48.940;8.258;2022-07-04T11:36:30;100610.63;;;40.96;16.89
61055;BME280;46939;48.940;8.258;2022-07-04T11:39:00;100614.69;;;41.09;16.88
61055;BME280;46939;48.940;8.258;2022-07-04T11:41:30;100610.88;;;41.42;16.94
61055;BME280;46939;48.940;8.258;2022-07-04T11:44:16;100604.56;;;41.53;16.68
61055;BME280;46939;48.940;8.258;2022-07-04T11:47:09;100601.16;;;41.04;16.46
61055;BME280;46939;48.940;8.258;2022-07-04T11:49:44;100608.28;;;40.98;16.83
61055;BME280;46939;48.940;8.258;2022-07-04T11:52:14;100596.00;;;40.99;16.89
61055;BME280;46939;48.940;8.258;2022-07-04T11:54:44;100601.38;;;40.74;16.51
61055;BME280;46939;48.940;8.258;2022-07-04T12:00:48;100584.47;;;41.01;16.47
61055;BME280;46939;48.940;8.258;2022-07-04T12:03:23;100598.50;;;41.33;15.94
61055;BME280;46939;48.940;8.258;2022-07-04T12:06:00;100578.47;;;40.95;16.24
61055;BME280;46939;48.940;8.258;2022-07-04T12:08:28;100584.81;;;40.92;16.50
61055;BME280;46939;48.940;8.258;2022-07-04T12:10:57;100587.84;;;40.69;17.14
61055;BME280;46939;48.940;8.258;2022-07-04T12:13:25;100585.31;;;41.12;16.60
61055;BME280;46939;48.940;8.258;2022-07-04T12:15:56;100586.56;;;41.21;16.03
61055;BME280;46939;48.940;8.258;2022-07-04T12:18:49;100576.75;;;40.69;16.88
61055;BME280;46939;48.940;8.258;2022-07-04T12:21:55;100570.09;;;40.88;17.23
61055;BME280;46939;48.940;8.258;2022-07-04T12:24:41;100576.28;;;41.36;16.33
61055;BME280;46939;48.940;8.258;2022-07-04T12:27:18;100562.38;;;41.36;16.08
61055;BME280;46939;48.940;8.258;2022-07-04T12:29:48;100560.06;;;41.49;15.10
61055;BME280;46939;48.940;8.258;2022-07-04T12:32:17;100575.25;;;41.94;15.76
61055;BME280;46939;48.940;8.258;2022-07-04T12:34:49;100563.28;;;42.15;15.23
61055;BME280;46939;48.940;8.258;2022-07-04T12:37:17;100565.66;;;42.49;15.18
61055;BME280;46939;48.940;8.258;2022-07-04T12:39:46;100556.09;;;42.57;15.50
61055;BME280;46939;48.940;8.258;2022-07-04T12:42:17;100552.50;;;42.71;15.56
61055;BME280;46939;48.940;8.258;2022-07-04T12:44:46;100541.38;;;42.60;14.53
61055;BME280;46939;48.940;8.258;2022-07-04T12:47:17;100547.41;;;42.27;15.56
61055;BME280;46939;48.940;8.258;2022-07-04T12:49:49;100539.03;;;42.05;15.39
61055;BME280;46939;48.940;8.258;2022-07-04T12:52:18;100537.88;;;41.92;15.18
61055;BME280;46939;48.940;8.258;2022-07-04T12:55:02;100540.25;;;41.97;15.16
61055;BME280;46939;48.940;8.258;2022-07-04T12:57:32;100539.06;;;42.30;15.58
61055;BME280;46939;48.940;8.258;2022-07-04T13:00:01;100529.47;;;41.74;15.19
61055;BME280;46939;48.940;8.258;2022-07-04T13:02:30;100522.72;;;41.68;15.82
61055;BME280;46939;48.940;8.258;2022-07-04T13:05:01;100524.94;;;41.05;16.14
61055;BME280;46939;48.940;8.258;2022-07-04T13:07:30;100523.53;;;41.76;16.01
61055;BME280;46939;48.940;8.258;2022-07-04T13:10:00;100519.53;;;42.16;15.22
61055;BME280;46939;48.940;8.258;2022-07-04T13:12:29;100523.13;;;42.41;14.75